Kiris — EA9427 — position and weather

sailwx.info

Track history (hours):
 
Tides and Currents Weather Stations Pressure Air Temp Water Temp Dewpoint Dewpoint Depression Visibility Wind Speed Wind Dir Waves Ship Positions

Kiris

Last reported at 2018-Aug-20 18:06 UTC. Time now 2018-Aug-21 03:55 UTC.
Position N 37°45' W 000°45'.

Length 15 m.

Type: Sailing vessel. MMSI: 224186580.

Date/timePositionNaut miles runAvg speedWind from/ knotsBaromVisibWave heightAir tempDewpointWater temp
2018-Aug-20 18:06N 37°45' W 000°45'0 0.0
2018-Aug-20 18:01N 37°45' W 000°45'0 1.9
2018-Aug-20 17:59N 37°45' W 000°45'2 3.4
2018-Aug-20 17:30N 37°46' W 000°46'0 0.0
2018-Aug-20 17:00N 37°46' W 000°46'0 0.5
2018-Aug-20 16:30N 37°46' W 000°46'2 4.1
2018-Aug-20 15:54N 37°44' W 000°44'2 2.3
2018-Aug-20 15:15N 37°43' W 000°43'1 3.7
2018-Aug-20 15:02N 37°44' W 000°43'0 0.1
2018-Aug-20 12:46N 37°44' W 000°43'0 0.3
2018-Aug-20 12:27N 37°44' W 000°43'0 0.0
2018-Aug-20 11:57N 37°44' W 000°43'0 0.0
2018-Aug-20 11:21N 37°44' W 000°43'1 2.0
2018-Aug-20 11:03N 37°43' W 000°43'0 5.2
2018-Aug-20 10:59N 37°43' W 000°42'1 2.3
2018-Aug-20 10:30N 37°44' W 000°42'2 4.3
2018-Aug-20 10:03N 37°45' W 000°44'0 3.9
2018-Aug-20 10:00N 37°45' W 000°44'0 0.4
2018-Aug-20 09:29N 37°45' W 000°45'0 0.0
2018-Aug-19 17:05N 37°45' W 000°45'0 0.2
2018-Aug-19 16:58N 37°45' W 000°45'2 3.1
2018-Aug-19 16:25N 37°46' W 000°46'0 0.0
2018-Aug-19 15:56N 37°46' W 000°46'0 0.0
2018-Aug-19 15:20N 37°46' W 000°46'0 0.0
2018-Aug-19 14:56N 37°46' W 000°46'0 0.0
2018-Aug-19 14:26N 37°46' W 000°46'0 0.0
2018-Aug-19 13:55N 37°46' W 000°46'0 0.0
2018-Aug-19 13:25N 37°46' W 000°46'0 0.0
2018-Aug-19 12:55N 37°46' W 000°46'0 0.0
2018-Aug-19 12:26N 37°46' W 000°46'0 0.0
2018-Aug-19 11:56N 37°46' W 000°46'0 0.0
2018-Aug-19 11:26N 37°46' W 000°46'0 0.0
2018-Aug-19 10:56N 37°46' W 000°46'0 0.0
2018-Aug-19 10:28N 37°46' W 000°46'1 3.0
2018-Aug-19 10:00N 37°45' W 000°45'0 0.0
2018-Aug-18 18:42N 37°45' W 000°45'0 0.0
2018-Aug-18 18:29N 37°45' W 000°45'1 2.0
2018-Aug-18 18:00N 37°46' W 000°45'0 0.0
2018-Aug-18 17:30N 37°46' W 000°45'0 0.0
2018-Aug-18 17:00N 37°46' W 000°45'0 0.0
2018-Aug-18 16:30N 37°46' W 000°45'2 3.4
2018-Aug-18 15:54N 37°44' W 000°43'3 0.9
2018-Aug-18 12:48N 37°42' W 000°41'2 4.8
2018-Aug-18 12:26N 37°43' W 000°43'2 4.6
2018-Aug-18 11:58N 37°45' W 000°44'0 0.3
2018-Aug-18 11:26N 37°45' W 000°45'0 0.0
2018-Aug-18 10:56N 37°45' W 000°45'0 0.0
2018-Aug-18 07:30N 37°45' W 000°45'0 0.0
2018-Aug-17 18:33N 37°45' W 000°45'0 0.0
2018-Aug-17 18:29N 37°45' W 000°45'0 0.0
2018-Aug-17 17:53N 37°45' W 000°45'0 0.0
2018-Aug-17 17:29N 37°45' W 000°45'0 0.0
2018-Aug-17 16:59N 37°45' W 000°45'0 0.0
2018-Aug-17 16:29N 37°45' W 000°45'1 0.3
2018-Aug-17 12:19N 37°44' W 000°43'1 3.7
2018-Aug-17 12:00N 37°45' W 000°45'1 2.5
2018-Aug-17 11:30N 37°45' W 000°46'1 1.5
2018-Aug-17 11:00N 37°45' W 000°45'1 1.0
2018-Aug-17 10:28N 37°45' W 000°45'0 0.0
2018-Aug-17 09:58N 37°45' W 000°45'0 0.0
2018-Aug-17 09:28N 37°45' W 000°45'0 0.0
2018-Aug-16 16:20N 37°45' W 000°45'1 1.9
2018-Aug-16 15:53N 37°45' W 000°44'1 3.2
2018-Aug-16 15:28N 37°43' W 000°43'1 1.8
2018-Aug-16 14:45N 37°45' W 000°42'1 4.3
2018-Aug-16 14:30N 37°46' W 000°42'0 0.4
2018-Aug-16 14:00N 37°46' W 000°42'3 2.6
2018-Aug-16 12:49N 37°43' W 000°43'1 3.3
2018-Aug-16 12:29N 37°44' W 000°43'2 3.1
2018-Aug-16 12:00N 37°45' W 000°45'2 3.2
2018-Aug-16 11:28N 37°45' W 000°47'1 1.3
2018-Aug-16 11:00N 37°45' W 000°46'1 2.0
2018-Aug-16 10:24N 37°45' W 000°45'0 0.0
2018-Aug-16 09:48N 37°45' W 000°45'0 0.0
2018-Aug-15 13:20N 37°45' W 000°45'2 1.5
2018-Aug-15 12:11N 37°44' W 000°47'1 3.8
2018-Aug-15 12:00N 37°44' W 000°47'0 0.2
2018-Aug-15 11:29N 37°44' W 000°47'1 2.7
2018-Aug-15 10:57N 37°45' W 000°46'1 1.3
2018-Aug-15 10:29N 37°45' W 000°45'1 1.2
2018-Aug-15 09:55N 37°45' W 000°45'0 0.0
2018-Aug-15 09:25N 37°45' W 000°45'0 0.0
2018-Aug-14 18:38N 37°45' W 000°45'0 0.0
2018-Aug-14 18:29N 37°45' W 000°45'2 3.8
2018-Aug-14 18:01N 37°46' W 000°46'0 0.0
2018-Aug-14 17:31N 37°46' W 000°46'0 0.4
2018-Aug-14 17:00N 37°46' W 000°46'2 0.4
2018-Aug-14 12:27N 37°45' W 000°45'0 0.0
2018-Aug-14 09:33N 37°45' W 000°45'0 0.0
2018-Aug-14 09:21N 37°45' W 000°45'0 0.0
2018-Aug-14 08:57N 37°45' W 000°45'0 0.0
2018-Aug-14 08:27N 37°45' W 000°45'0 0.0
2018-Aug-14 07:57N 37°45' W 000°45'0 0.0
2018-Aug-14 07:27N 37°45' W 000°45'0 0.0
2018-Aug-14 06:57N 37°45' W 000°45'0 0.0
2018-Aug-14 06:27N 37°45' W 000°45'0 0.0
2018-Aug-14 05:57N 37°45' W 000°45'0 0.0
2018-Aug-14 05:27N 37°45' W 000°45'0 0.0
2018-Aug-14 04:51N 37°45' W 000°45'0 0.0
2018-Aug-14 04:27N 37°45' W 000°45'0 0.0
2018-Aug-14 03:57N 37°45' W 000°45'0 0.0
2018-Aug-14 03:27N 37°45' W 000°45'0 0.0
2018-Aug-14 02:57N 37°45' W 000°45'0 0.0
2018-Aug-14 02:27N 37°45' W 000°45'0 0.0
2018-Aug-14 01:27N 37°45' W 000°45'0 0.0
2018-Aug-14 00:51N 37°45' W 000°45'0 0.0
2018-Aug-14 00:27N 37°45' W 000°45'0 0.0
2018-Aug-13 23:51N 37°45' W 000°45'0 0.0
2018-Aug-13 23:27N 37°45' W 000°45'0 0.0
2018-Aug-13 22:51N 37°45' W 000°45'0 0.0
2018-Aug-13 22:27N 37°45' W 000°45'0 0.0
2018-Aug-13 20:21N 37°45' W 000°45'0 0.0
2018-Aug-13 19:57N 37°45' W 000°45'0 0.0
2018-Aug-13 18:14N 37°45' W 000°45'1 2.3
2018-Aug-13 17:49N 37°44' W 000°43'1 0.2
2018-Aug-13 14:17N 37°44' W 000°43'1 4.6
2018-Aug-13 13:59N 37°45' W 000°44'2 0.1
2018-Aug-12 15:35N 37°44' W 000°43'0 0.0
2018-Aug-12 15:23N 37°44' W 000°43'1 2.4
2018-Aug-12 14:58N 37°43' W 000°43'2 0.3
2018-Aug-12 10:20N 37°44' W 000°43'1 3.4
2018-Aug-12 09:58N 37°45' W 000°45'0 0.0
2018-Aug-12 09:28N 37°45' W 000°45'0 0.0
2018-Aug-12 08:58N 37°45' W 000°45'0 0.0
2018-Aug-12 00:02N 37°45' W 000°45'0 0.0
2018-Aug-11 23:57N 37°45' W 000°45'2 4.2
2018-Aug-11 23:28N 37°45' W 000°47'1 2.5
2018-Aug-11 22:59N 37°44' W 000°47'2 3.5
2018-Aug-11 22:30N 37°42' W 000°47'3 1.9
2018-Aug-11 20:50N 37°45' W 000°45'1 0.9
2018-Aug-11 20:10N 37°45' W 000°45'0 0.0
2018-Aug-11 19:52N 37°45' W 000°45'0 0.0
2018-Aug-11 19:22N 37°45' W 000°45'0 0.0
2018-Aug-11 18:52N 37°45' W 000°45'0 0.0
2018-Aug-11 18:28N 37°45' W 000°45'0 0.0
2018-Aug-11 17:58N 37°45' W 000°45'2 2.0
2018-Aug-11 16:54N 37°45' W 000°47'1 1.6
2018-Aug-11 16:28N 37°45' W 000°47'1 0.1
2018-Aug-11 11:56N 37°44' W 000°47'1 2.1
2018-Aug-11 11:27N 37°45' W 000°47'1 2.6
2018-Aug-11 11:00N 37°45' W 000°45'1 0.9
2018-Aug-11 10:14N 37°45' W 000°45'0 0.0
2018-Aug-11 09:56N 37°45' W 000°45'0 0.0
2018-Aug-10 19:04N 37°45' W 000°45'0 0.0
2018-Aug-10 18:58N 37°45' W 000°45'0 0.0
2018-Aug-10 18:10N 37°45' W 000°45'  
Track history (hours):
 
Tides and Currents Weather Stations Pressure Air Temp Water Temp Dewpoint Dewpoint Depression Visibility Wind Speed Wind Dir Waves Ship Positions

Kiris

Last reported at 2018-Aug-20 18:06 UTC. Time now 2018-Aug-21 03:55 UTC.
Position N 37°45' W 000°45'.

Length 15 m.

Type: Sailing vessel. MMSI: 224186580.

Date/timePositionNaut miles runAvg speedWind from/ knotsBaromVisibWave heightAir tempDewpointWater temp
2018-Aug-20 18:06N 37°45' W 000°45'0 0.0
2018-Aug-20 18:01N 37°45' W 000°45'0 1.9
2018-Aug-20 17:59N 37°45' W 000°45'2 3.4
2018-Aug-20 17:30N 37°46' W 000°46'0 0.0
2018-Aug-20 17:00N 37°46' W 000°46'0 0.5
2018-Aug-20 16:30N 37°46' W 000°46'2 4.1
2018-Aug-20 15:54N 37°44' W 000°44'2 2.3
2018-Aug-20 15:15N 37°43' W 000°43'1 3.7
2018-Aug-20 15:02N 37°44' W 000°43'0 0.1
2018-Aug-20 12:46N 37°44' W 000°43'0 0.3
2018-Aug-20 12:27N 37°44' W 000°43'0 0.0
2018-Aug-20 11:57N 37°44' W 000°43'0 0.0
2018-Aug-20 11:21N 37°44' W 000°43'1 2.0
2018-Aug-20 11:03N 37°43' W 000°43'0 5.2
2018-Aug-20 10:59N 37°43' W 000°42'1 2.3
2018-Aug-20 10:30N 37°44' W 000°42'2 4.3
2018-Aug-20 10:03N 37°45' W 000°44'0 3.9
2018-Aug-20 10:00N 37°45' W 000°44'0 0.4
2018-Aug-20 09:29N 37°45' W 000°45'0 0.0
2018-Aug-19 17:05N 37°45' W 000°45'0 0.2
2018-Aug-19 16:58N 37°45' W 000°45'2 3.1
2018-Aug-19 16:25N 37°46' W 000°46'0 0.0
2018-Aug-19 15:56N 37°46' W 000°46'0 0.0
2018-Aug-19 15:20N 37°46' W 000°46'0 0.0
2018-Aug-19 14:56N 37°46' W 000°46'0 0.0
2018-Aug-19 14:26N 37°46' W 000°46'0 0.0
2018-Aug-19 13:55N 37°46' W 000°46'0 0.0
2018-Aug-19 13:25N 37°46' W 000°46'0 0.0
2018-Aug-19 12:55N 37°46' W 000°46'0 0.0
2018-Aug-19 12:26N 37°46' W 000°46'0 0.0
2018-Aug-19 11:56N 37°46' W 000°46'0 0.0
2018-Aug-19 11:26N 37°46' W 000°46'0 0.0
2018-Aug-19 10:56N 37°46' W 000°46'0 0.0
2018-Aug-19 10:28N 37°46' W 000°46'1 3.0
2018-Aug-19 10:00N 37°45' W 000°45'0 0.0
2018-Aug-18 18:42N 37°45' W 000°45'0 0.0
2018-Aug-18 18:29N 37°45' W 000°45'1 2.0
2018-Aug-18 18:00N 37°46' W 000°45'0 0.0
2018-Aug-18 17:30N 37°46' W 000°45'0 0.0
2018-Aug-18 17:00N 37°46' W 000°45'0 0.0
2018-Aug-18 16:30N 37°46' W 000°45'2 3.4
2018-Aug-18 15:54N 37°44' W 000°43'3 0.9
2018-Aug-18 12:48N 37°42' W 000°41'2 4.8
2018-Aug-18 12:26N 37°43' W 000°43'2 4.6
2018-Aug-18 11:58N 37°45' W 000°44'0 0.3
2018-Aug-18 11:26N 37°45' W 000°45'0 0.0
2018-Aug-18 10:56N 37°45' W 000°45'0 0.0
2018-Aug-18 07:30N 37°45' W 000°45'0 0.0
2018-Aug-17 18:33N 37°45' W 000°45'0 0.0
2018-Aug-17 18:29N 37°45' W 000°45'0 0.0
2018-Aug-17 17:53N 37°45' W 000°45'0 0.0
2018-Aug-17 17:29N 37°45' W 000°45'0 0.0
2018-Aug-17 16:59N 37°45' W 000°45'0 0.0
2018-Aug-17 16:29N 37°45' W 000°45'1 0.3
2018-Aug-17 12:19N 37°44' W 000°43'1 3.7
2018-Aug-17 12:00N 37°45' W 000°45'1 2.5
2018-Aug-17 11:30N 37°45' W 000°46'1 1.5
2018-Aug-17 11:00N 37°45' W 000°45'1 1.0
2018-Aug-17 10:28N 37°45' W 000°45'0 0.0
2018-Aug-17 09:58N 37°45' W 000°45'0 0.0
2018-Aug-17 09:28N 37°45' W 000°45'0 0.0
2018-Aug-16 16:20N 37°45' W 000°45'1 1.9
2018-Aug-16 15:53N 37°45' W 000°44'1 3.2
2018-Aug-16 15:28N 37°43' W 000°43'1 1.8
2018-Aug-16 14:45N 37°45' W 000°42'1 4.3
2018-Aug-16 14:30N 37°46' W 000°42'0 0.4
2018-Aug-16 14:00N 37°46' W 000°42'3 2.6
2018-Aug-16 12:49N 37°43' W 000°43'1 3.3
2018-Aug-16 12:29N 37°44' W 000°43'2 3.1
2018-Aug-16 12:00N 37°45' W 000°45'2 3.2
2018-Aug-16 11:28N 37°45' W 000°47'1 1.3
2018-Aug-16 11:00N 37°45' W 000°46'1 2.0
2018-Aug-16 10:24N 37°45' W 000°45'0 0.0
2018-Aug-16 09:48N 37°45' W 000°45'0 0.0
2018-Aug-15 13:20N 37°45' W 000°45'2 1.5
2018-Aug-15 12:11N 37°44' W 000°47'1 3.8
2018-Aug-15 12:00N 37°44' W 000°47'0 0.2
2018-Aug-15 11:29N 37°44' W 000°47'1 2.7
2018-Aug-15 10:57N 37°45' W 000°46'1 1.3
2018-Aug-15 10:29N 37°45' W 000°45'1 1.2
2018-Aug-15 09:55N 37°45' W 000°45'0 0.0
2018-Aug-15 09:25N 37°45' W 000°45'0 0.0
2018-Aug-14 18:38N 37°45' W 000°45'0 0.0
2018-Aug-14 18:29N 37°45' W 000°45'2 3.8
2018-Aug-14 18:01N 37°46' W 000°46'0 0.0
2018-Aug-14 17:31N 37°46' W 000°46'0 0.4
2018-Aug-14 17:00N 37°46' W 000°46'2 0.4
2018-Aug-14 12:27N 37°45' W 000°45'0 0.0
2018-Aug-14 09:33N 37°45' W 000°45'0 0.0
2018-Aug-14 09:21N 37°45' W 000°45'0 0.0
2018-Aug-14 08:57N 37°45' W 000°45'0 0.0
2018-Aug-14 08:27N 37°45' W 000°45'0 0.0
2018-Aug-14 07:57N 37°45' W 000°45'0 0.0
2018-Aug-14 07:27N 37°45' W 000°45'0 0.0
2018-Aug-14 06:57N 37°45' W 000°45'0 0.0
2018-Aug-14 06:27N 37°45' W 000°45'0 0.0
2018-Aug-14 05:57N 37°45' W 000°45'0 0.0
2018-Aug-14 05:27N 37°45' W 000°45'0 0.0
2018-Aug-14 04:51N 37°45' W 000°45'0 0.0
2018-Aug-14 04:27N 37°45' W 000°45'0 0.0
2018-Aug-14 03:57N 37°45' W 000°45'0 0.0
2018-Aug-14 03:27N 37°45' W 000°45'0 0.0
2018-Aug-14 02:57N 37°45' W 000°45'0 0.0
2018-Aug-14 02:27N 37°45' W 000°45'0 0.0
2018-Aug-14 01:27N 37°45' W 000°45'0 0.0
2018-Aug-14 00:51N 37°45' W 000°45'0 0.0
2018-Aug-14 00:27N 37°45' W 000°45'0 0.0
2018-Aug-13 23:51N 37°45' W 000°45'0 0.0
2018-Aug-13 23:27N 37°45' W 000°45'0 0.0
2018-Aug-13 22:51N 37°45' W 000°45'0 0.0
2018-Aug-13 22:27N 37°45' W 000°45'0 0.0
2018-Aug-13 20:21N 37°45' W 000°45'0 0.0
2018-Aug-13 19:57N 37°45' W 000°45'0 0.0
2018-Aug-13 18:14N 37°45' W 000°45'1 2.3
2018-Aug-13 17:49N 37°44' W 000°43'1 0.2
2018-Aug-13 14:17N 37°44' W 000°43'1 4.6
2018-Aug-13 13:59N 37°45' W 000°44'2 0.1
2018-Aug-12 15:35N 37°44' W 000°43'0 0.0
2018-Aug-12 15:23N 37°44' W 000°43'1 2.4
2018-Aug-12 14:58N 37°43' W 000°43'2 0.3
2018-Aug-12 10:20N 37°44' W 000°43'1 3.4
2018-Aug-12 09:58N 37°45' W 000°45'0 0.0
2018-Aug-12 09:28N 37°45' W 000°45'0 0.0
2018-Aug-12 08:58N 37°45' W 000°45'0 0.0
2018-Aug-12 00:02N 37°45' W 000°45'0 0.0
2018-Aug-11 23:57N 37°45' W 000°45'2 4.2
2018-Aug-11 23:28N 37°45' W 000°47'1 2.5
2018-Aug-11 22:59N 37°44' W 000°47'2 3.5
2018-Aug-11 22:30N 37°42' W 000°47'3 1.9
2018-Aug-11 20:50N 37°45' W 000°45'1 0.9
2018-Aug-11 20:10N 37°45' W 000°45'0 0.0
2018-Aug-11 19:52N 37°45' W 000°45'0 0.0
2018-Aug-11 19:22N 37°45' W 000°45'0 0.0
2018-Aug-11 18:52N 37°45' W 000°45'0 0.0
2018-Aug-11 18:28N 37°45' W 000°45'0 0.0
2018-Aug-11 17:58N 37°45' W 000°45'2 2.0
2018-Aug-11 16:54N 37°45' W 000°47'1 1.6
2018-Aug-11 16:28N 37°45' W 000°47'1 0.1
2018-Aug-11 11:56N 37°44' W 000°47'1 2.1
2018-Aug-11 11:27N 37°45' W 000°47'1 2.6
2018-Aug-11 11:00N 37°45' W 000°45'1 0.9
2018-Aug-11 10:14N 37°45' W 000°45'0 0.0
2018-Aug-11 09:56N 37°45' W 000°45'0 0.0
2018-Aug-10 19:04N 37°45' W 000°45'0 0.0
2018-Aug-10 18:58N 37°45' W 000°45'0 0.0
2018-Aug-10 18:10N 37°45' W 000°45'  

Dump ship's entire track history